sensor_id;sensor_type;location;lat;lon;timestamp;temperature;humidity
60033;DHT22;45905;50.570;10.428;2023-12-04T00:04:45;-3.60;99.90
60033;DHT22;45905;50.570;10.428;2023-12-04T00:12:07;-3.50;99.90
60033;DHT22;45905;50.570;10.428;2023-12-04T00:14:35;-3.30;99.90
60033;DHT22;45905;50.570;10.428;2023-12-04T00:17:02;-3.10;99.90
60033;DHT22;45905;50.570;10.428;2023-12-04T00:26:52;-3.30;99.90
60033;DHT22;45905;50.570;10.428;2023-12-04T00:34:14;-3.30;99.90
60033;DHT22;45905;50.570;10.428;2023-12-04T00:51:28;-3.50;99.90
60033;DHT22;45905;50.570;10.428;2023-12-04T00:58:51;-3.40;99.90
60033;DHT22;45905;50.570;10.428;2023-12-04T01:01:18;-3.60;99.90
60033;DHT22;45905;50.570;10.428;2023-12-04T01:06:22;-3.30;99.90
60033;DHT22;45905;50.570;10.428;2023-12-04T01:08:50;-1.30;99.90
60033;DHT22;45905;50.570;10.428;2023-12-04T01:11:17;-3.40;99.90
60033;DHT22;45905;50.570;10.428;2023-12-04T01:18:42;-3.50;99.90
60033;DHT22;45905;50.570;10.428;2023-12-04T01:23:37;-3.30;99.90
60033;DHT22;45905;50.570;10.428;2023-12-04T01:26:05;-3.40;99.90
60033;DHT22;45905;50.570;10.428;2023-12-04T01:28:32;-3.60;99.90
60033;DHT22;45905;50.570;10.428;2023-12-04T01:48:14;-3.60;99.90
60033;DHT22;45905;50.570;10.428;2023-12-04T01:55:38;-3.60;99.90
60033;DHT22;45905;50.570;10.428;2023-12-04T01:58:06;-3.60;99.90
60033;DHT22;45905;50.570;10.428;2023-12-04T02:03:01;-3.60;99.90
60033;DHT22;45905;50.570;10.428;2023-12-04T02:05:29;-3.60;99.90
60033;DHT22;45905;50.570;10.428;2023-12-04T02:07:58;-3.80;99.90
60033;DHT22;45905;50.570;10.428;2023-12-04T02:28:04;-3.80;99.90
60033;DHT22;45905;50.570;10.428;2023-12-04T02:30:34;-3.70;99.90
60033;DHT22;45905;50.570;10.428;2023-12-04T02:33:05;-3.70;99.90
60033;DHT22;45905;50.570;10.428;2023-12-04T02:35:35;-3.80;99.90
60033;DHT22;45905;50.570;10.428;2023-12-04T02:38:05;-3.80;99.90
60033;DHT22;45905;50.570;10.428;2023-12-04T02:43:00;-3.70;99.90
60033;DHT22;45905;50.570;10.428;2023-12-04T02:47:55;-3.80;99.90
60033;DHT22;45905;50.570;10.428;2023-12-04T03:02:41;-3.80;99.90
60033;DHT22;45905;50.570;10.428;2023-12-04T03:05:09;-3.90;99.90
60033;DHT22;45905;50.570;10.428;2023-12-04T03:14:59;-4.00;99.90
60033;DHT22;45905;50.570;10.428;2023-12-04T03:17:26;-4.00;99.90
60033;DHT22;45905;50.570;10.428;2023-12-04T03:22:21;-3.80;99.90
60033;DHT22;45905;50.570;10.428;2023-12-04T03:24:48;-3.80;99.90
60033;DHT22;45905;50.570;10.428;2023-12-04T03:27:15;-3.80;99.90
60033;DHT22;45905;50.570;10.428;2023-12-04T03:29:43;-3.80;99.90
60033;DHT22;45905;50.570;10.428;2023-12-04T03:34:38;-3.90;99.90
60033;DHT22;45905;50.570;10.428;2023-12-04T03:37:05;-3.90;99.90
60033;DHT22;45905;50.570;10.428;2023-12-04T03:46:56;-3.90;99.90
60033;DHT22;45905;50.570;10.428;2023-12-04T03:51:51;-4.30;99.90
60033;DHT22;45905;50.570;10.428;2023-12-04T04:06:37;-4.70;99.90
60033;DHT22;45905;50.570;10.428;2023-12-04T04:09:05;-4.20;99.90
60033;DHT22;45905;50.570;10.428;2023-12-04T04:16:28;-4.00;99.90
60033;DHT22;45905;50.570;10.428;2023-12-04T04:21:23;-4.00;99.90
60033;DHT22;45905;50.570;10.428;2023-12-04T04:26:20;-3.90;99.90
60033;DHT22;45905;50.570;10.428;2023-12-04T04:36:10;-4.00;99.90
60033;DHT22;45905;50.570;10.428;2023-12-04T04:38:39;-4.00;99.90
60033;DHT22;45905;50.570;10.428;2023-12-04T04:41:12;-3.90;99.90
60033;DHT22;45905;50.570;10.428;2023-12-04T04:46:08;-4.30;99.90
60033;DHT22;45905;50.570;10.428;2023-12-04T04:48:35;-4.30;99.90
60033;DHT22;45905;50.570;10.428;2023-12-04T04:51:03;-4.10;99.90
60033;DHT22;45905;50.570;10.428;2023-12-04T04:55:58;-4.10;99.90
60033;DHT22;45905;50.570;10.428;2023-12-04T05:28:10;-4.00;99.90
60033;DHT22;45905;50.570;10.428;2023-12-04T05:33:05;-4.30;99.90
60033;DHT22;45905;50.570;10.428;2023-12-04T05:38:01;-4.50;99.90
60033;DHT22;45905;50.570;10.428;2023-12-04T05:40:29;-4.20;99.90
60033;DHT22;45905;50.570;10.428;2023-12-04T05:55:14;-4.40;99.90
60033;DHT22;45905;50.570;10.428;2023-12-04T06:10:08;-4.40;99.90
60033;DHT22;45905;50.570;10.428;2023-12-04T06:15:04;-4.30;99.90
60033;DHT22;45905;50.570;10.428;2023-12-04T06:22:27;-4.40;99.90
60033;DHT22;45905;50.570;10.428;2023-12-04T06:24:55;-4.50;99.90
60033;DHT22;45905;50.570;10.428;2023-12-04T06:27:22;-3.40;99.90
60033;DHT22;45905;50.570;10.428;2023-12-04T06:29:50;-4.60;99.90
60033;DHT22;45905;50.570;10.428;2023-12-04T06:32:19;-4.40;99.90
60033;DHT22;45905;50.570;10.428;2023-12-04T06:34:47;-4.30;99.90
60033;DHT22;45905;50.570;10.428;2023-12-04T06:39:45;-4.40;99.90
60033;DHT22;45905;50.570;10.428;2023-12-04T06:42:15;-4.50;99.90
60033;DHT22;45905;50.570;10.428;2023-12-04T06:47:12;-4.40;99.90
60033;DHT22;45905;50.570;10.428;2023-12-04T06:49:43;-4.60;99.90
60033;DHT22;45905;50.570;10.428;2023-12-04T06:54:38;-4.20;99.90
60033;DHT22;45905;50.570;10.428;2023-12-04T07:04:28;-4.30;99.90
60033;DHT22;45905;50.570;10.428;2023-12-04T07:11:52;-4.60;99.90
60033;DHT22;45905;50.570;10.428;2023-12-04T07:21:43;-4.70;99.90
60033;DHT22;45905;50.570;10.428;2023-12-04T07:26:38;-4.30;99.90
60033;DHT22;45905;50.570;10.428;2023-12-04T07:31:33;-4.80;99.90
60033;DHT22;45905;50.570;10.428;2023-12-04T07:36:29;-4.60;99.90
60033;DHT22;45905;50.570;10.428;2023-12-04T07:46:19;-4.90;99.90
60033;DHT22;45905;50.570;10.428;2023-12-04T07:56:11;-4.80;99.90
60033;DHT22;45905;50.570;10.428;2023-12-04T08:01:07;-4.90;99.90
60033;DHT22;45905;50.570;10.428;2023-12-04T08:06:03;-4.90;99.90
60033;DHT22;45905;50.570;10.428;2023-12-04T08:08:32;-5.00;99.90
60033;DHT22;45905;50.570;10.428;2023-12-04T08:15:55;-5.20;99.90
60033;DHT22;45905;50.570;10.428;2023-12-04T08:25:45;-4.60;99.90
60033;DHT22;45905;50.570;10.428;2023-12-04T08:42:59;-4.70;99.90
60033;DHT22;45905;50.570;10.428;2023-12-04T08:47:54;-4.60;99.90
60033;DHT22;45905;50.570;10.428;2023-12-04T08:50:21;-4.80;99.90
60033;DHT22;45905;50.570;10.428;2023-12-04T08:57:44;-4.60;99.90
60033;DHT22;45905;50.570;10.428;2023-12-04T09:00:12;-4.60;99.90
60033;DHT22;45905;50.570;10.428;2023-12-04T09:05:15;-4.40;99.90
60033;DHT22;45905;50.570;10.428;2023-12-04T09:22:52;-4.20;99.90
60033;DHT22;45905;50.570;10.428;2023-12-04T09:27:57;-4.20;99.90
60033;DHT22;45905;50.570;10.428;2023-12-04T09:30:26;-3.60;99.90
60033;DHT22;45905;50.570;10.428;2023-12-04T09:32:54;-4.90;99.90
60033;DHT22;45905;50.570;10.428;2023-12-04T09:37:49;-4.40;99.90
60033;DHT22;45905;50.570;10.428;2023-12-04T09:42:45;-4.10;99.90
60033;DHT22;45905;50.570;10.428;2023-12-04T09:45:13;-4.00;99.90
60033;DHT22;45905;50.570;10.428;2023-12-04T09:47:42;-4.00;99.90
60033;DHT22;45905;50.570;10.428;2023-12-04T09:52:38;-3.90;99.90
60033;DHT22;45905;50.570;10.428;2023-12-04T09:55:06;-3.90;99.90
60033;DHT22;45905;50.570;10.428;2023-12-04T09:57:34;-3.90;99.90
60033;DHT22;45905;50.570;10.428;2023-12-04T10:00:03;-3.80;99.90
60033;DHT22;45905;50.570;10.428;2023-12-04T10:05:09;-3.70;99.90
60033;DHT22;45905;50.570;10.428;2023-12-04T10:10:07;-3.70;99.90
60033;DHT22;45905;50.570;10.428;2023-12-04T10:12:36;-3.70;99.90
60033;DHT22;45905;50.570;10.428;2023-12-04T10:15:09;-3.70;99.90
60033;DHT22;45905;50.570;10.428;2023-12-04T10:17:39;-3.70;99.90
60033;DHT22;45905;50.570;10.428;2023-12-04T10:20:14;-3.60;99.90
60033;DHT22;45905;50.570;10.428;2023-12-04T10:23:01;-3.60;99.90
60033;DHT22;45905;50.570;10.428;2023-12-04T10:25:30;-3.40;99.90
60033;DHT22;45905;50.570;10.428;2023-12-04T10:28:09;-3.80;99.90
60033;DHT22;45905;50.570;10.428;2023-12-04T10:33:09;-3.30;99.90
60033;DHT22;45905;50.570;10.428;2023-12-04T10:38:06;-3.60;99.90
60033;DHT22;45905;50.570;10.428;2023-12-04T10:40:35;-1.80;99.90
60033;DHT22;45905;50.570;10.428;2023-12-04T10:43:21;-3.60;99.90
60033;DHT22;45905;50.570;10.428;2023-12-04T10:45:49;-3.50;99.90
60033;DHT22;45905;50.570;10.428;2023-12-04T10:48:18;-3.40;99.90
60033;DHT22;45905;50.570;10.428;2023-12-04T10:50:48;-3.60;99.90
60033;DHT22;45905;50.570;10.428;2023-12-04T10:53:17;-3.40;99.90
60033;DHT22;45905;50.570;10.428;2023-12-04T10:55:45;-3.40;99.90
60033;DHT22;45905;50.570;10.428;2023-12-04T10:58:15;-3.40;99.90
60033;DHT22;45905;50.570;10.428;2023-12-04T11:00:45;-3.30;99.90
60033;DHT22;45905;50.570;10.428;2023-12-04T11:03:25;-3.40;99.90
60033;DHT22;45905;50.570;10.428;2023-12-04T11:06:01;-3.20;99.90
60033;DHT22;45905;50.570;10.428;2023-12-04T11:08:33;-3.20;99.90
60033;DHT22;45905;50.570;10.428;2023-12-04T11:11:08;-4.50;99.90
60033;DHT22;45905;50.570;10.428;2023-12-04T11:13:48;-3.10;99.90
60033;DHT22;45905;50.570;10.428;2023-12-04T11:16:29;-3.10;99.90
60033;DHT22;45905;50.570;10.428;2023-12-04T11:19:18;-3.10;99.90
60033;DHT22;45905;50.570;10.428;2023-12-04T11:21:52;-3.10;99.90
60033;DHT22;45905;50.570;10.428;2023-12-04T11:24:21;-3.00;99.90
60033;DHT22;45905;50.570;10.428;2023-12-04T11:26:49;-3.10;99.90
60033;DHT22;45905;50.570;10.428;2023-12-04T11:29:18;-3.00;99.90
60033;DHT22;45905;50.570;10.428;2023-12-04T11:31:46;-3.20;99.90
60033;DHT22;45905;50.570;10.428;2023-12-04T11:36:42;-3.10;99.90
60033;DHT22;45905;50.570;10.428;2023-12-04T11:41:42;-2.80;99.90
60033;DHT22;45905;50.570;10.428;2023-12-04T11:44:13;-2.80;99.90
60033;DHT22;45905;50.570;10.428;2023-12-04T11:47:06;-2.80;99.90
60033;DHT22;45905;50.570;10.428;2023-12-04T11:49:33;-2.60;99.90
60033;DHT22;45905;50.570;10.428;2023-12-04T11:52:06;-2.70;99.90
60033;DHT22;45905;50.570;10.428;2023-12-04T11:55:00;-2.90;99.90
60033;DHT22;45905;50.570;10.428;2023-12-04T11:57:40;-2.80;99.90
60033;DHT22;45905;50.570;10.428;2023-12-04T12:03:00;-2.70;99.90
60033;DHT22;45905;50.570;10.428;2023-12-04T12:05:49;-2.70;99.90
60033;DHT22;45905;50.570;10.428;2023-12-04T12:13:20;-2.60;99.90
60033;DHT22;45905;50.570;10.428;2023-12-04T12:28:10;-2.50;99.90
60033;DHT22;45905;50.570;10.428;2023-12-04T12:35:32;-2.50;99.90
60033;DHT22;45905;50.570;10.428;2023-12-04T12:40:28;-2.40;99.90
60033;DHT22;45905;50.570;10.428;2023-12-04T12:43:07;-2.30;99.90
60033;DHT22;45905;50.570;10.428;2023-12-04T12:45:42;-2.30;99.90
60033;DHT22;45905;50.570;10.428;2023-12-04T12:48:14;-2.30;99.90
60033;DHT22;45905;50.570;10.428;2023-12-04T12:50:48;-2.30;99.90
60033;DHT22;45905;50.570;10.428;2023-12-04T12:53:17;-2.20;99.90
60033;DHT22;45905;50.570;10.428;2023-12-04T12:55:48;-2.20;99.90
60033;DHT22;45905;50.570;10.428;2023-12-04T12:58:16;-2.40;99.90
60033;DHT22;45905;50.570;10.428;2023-12-04T13:00:47;-2.30;99.90
60033;DHT22;45905;50.570;10.428;2023-12-04T13:03:19;-2.10;99.90
60033;DHT22;45905;50.570;10.428;2023-12-04T13:08:15;-1.90;99.90
60033;DHT22;45905;50.570;10.428;2023-12-04T13:10:42;-2.00;99.90
60033;DHT22;45905;50.570;10.428;2023-12-04T13:13:11;-2.00;99.90
60033;DHT22;45905;50.570;10.428;2023-12-04T13:15:41;-2.00;99.90
60033;DHT22;45905;50.570;10.428;2023-12-04T13:18:09;-2.00;99.90
60033;DHT22;45905;50.570;10.428;2023-12-04T13:20:36;-2.60;99.90
60033;DHT22;45905;50.570;10.428;2023-12-04T13:30:28;-2.10;99.90
60033;DHT22;45905;50.570;10.428;2023-12-04T13:32:55;-1.90;99.90
60033;DHT22;45905;50.570;10.428;2023-12-04T13:35:23;-1.80;99.90
60033;DHT22;45905;50.570;10.428;2023-12-04T13:37:52;-1.80;99.90
60033;DHT22;45905;50.570;10.428;2023-12-04T13:40:23;-1.80;99.90
60033;DHT22;45905;50.570;10.428;2023-12-04T13:42:54;-1.60;99.90
60033;DHT22;45905;50.570;10.428;2023-12-04T13:48:07;-1.60;99.90
60033;DHT22;45905;50.570;10.428;2023-12-04T13:50:35;-1.70;99.90
60033;DHT22;45905;50.570;10.428;2023-12-04T13:53:03;-1.60;99.90
60033;DHT22;45905;50.570;10.428;2023-12-04T13:58:34;-1.00;99.90
60033;DHT22;45905;50.570;10.428;2023-12-04T14:03:43;-1.70;99.90
60033;DHT22;45905;50.570;10.428;2023-12-04T14:08:40;-1.60;99.90
60033;DHT22;45905;50.570;10.428;2023-12-04T14:11:08;-1.70;99.90
60033;DHT22;45905;50.570;10.428;2023-12-04T14:16:06;-1.70;99.90
60033;DHT22;45905;50.570;10.428;2023-12-04T14:21:02;-1.70;99.90
60033;DHT22;45905;50.570;10.428;2023-12-04T14:23:29;-1.90;99.90
60033;DHT22;45905;50.570;10.428;2023-12-04T14:25:56;-1.70;99.90
60033;DHT22;45905;50.570;10.428;2023-12-04T14:30:58;-1.70;99.90
60033;DHT22;45905;50.570;10.428;2023-12-04T14:33:26;-1.50;99.90
60033;DHT22;45905;50.570;10.428;2023-12-04T14:35:53;-2.00;99.90
60033;DHT22;45905;50.570;10.428;2023-12-04T14:38:21;-1.50;99.90
60033;DHT22;45905;50.570;10.428;2023-12-04T14:43:17;-1.90;99.90
60033;DHT22;45905;50.570;10.428;2023-12-04T14:48:12;-1.70;99.90
60033;DHT22;45905;50.570;10.428;2023-12-04T14:50:39;-1.50;99.90
60033;DHT22;45905;50.570;10.428;2023-12-04T14:55:43;-1.70;99.90
60033;DHT22;45905;50.570;10.428;2023-12-04T14:58:29;-1.70;99.90
60033;DHT22;45905;50.570;10.428;2023-12-04T15:01:13;-1.70;99.90
60033;DHT22;45905;50.570;10.428;2023-12-04T15:04:18;-1.20;99.90
60033;DHT22;45905;50.570;10.428;2023-12-04T15:07:04;-1.60;99.90
60033;DHT22;45905;50.570;10.428;2023-12-04T15:12:22;-1.60;99.90
60033;DHT22;45905;50.570;10.428;2023-12-04T15:15:09;-1.30;99.90
60033;DHT22;45905;50.570;10.428;2023-12-04T15:18:03;-1.50;99.90
60033;DHT22;45905;50.570;10.428;2023-12-04T15:20:49;-1.60;99.90
60033;DHT22;45905;50.570;10.428;2023-12-04T15:23:16;-1.50;99.90
60033;DHT22;45905;50.570;10.428;2023-12-04T15:25:45;-1.50;99.90
60033;DHT22;45905;50.570;10.428;2023-12-04T15:30:40;-1.70;99.90
60033;DHT22;45905;50.570;10.428;2023-12-04T15:35:39;-1.90;99.90
60033;DHT22;45905;50.570;10.428;2023-12-04T15:38:08;-1.70;99.90
60033;DHT22;45905;50.570;10.428;2023-12-04T15:40:35;-1.70;99.90
60033;DHT22;45905;50.570;10.428;2023-12-04T15:45:30;-1.70;99.90
60033;DHT22;45905;50.570;10.428;2023-12-04T15:47:58;-1.70;99.90
60033;DHT22;45905;50.570;10.428;2023-12-04T15:50:26;-1.60;99.90
60033;DHT22;45905;50.570;10.428;2023-12-04T15:55:21;-1.60;99.90
60033;DHT22;45905;50.570;10.428;2023-12-04T15:57:49;-1.70;99.90
60033;DHT22;45905;50.570;10.428;2023-12-04T16:00:25;-1.70;99.90
60033;DHT22;45905;50.570;10.428;2023-12-04T16:02:53;-1.80;99.90
60033;DHT22;45905;50.570;10.428;2023-12-04T16:05:21;-1.60;99.90
60033;DHT22;45905;50.570;10.428;2023-12-04T16:07:48;-1.70;99.90
60033;DHT22;45905;50.570;10.428;2023-12-04T16:12:43;-1.60;99.90
60033;DHT22;45905;50.570;10.428;2023-12-04T16:20:08;-1.90;99.90
60033;DHT22;45905;50.570;10.428;2023-12-04T16:22:39;-1.70;99.90
60033;DHT22;45905;50.570;10.428;2023-12-04T16:25:08;-1.40;99.90
60033;DHT22;45905;50.570;10.428;2023-12-04T16:35:09;-1.70;99.90
60033;DHT22;45905;50.570;10.428;2023-12-04T16:37:36;-1.80;99.90
60033;DHT22;45905;50.570;10.428;2023-12-04T16:40:07;-1.70;99.90
60033;DHT22;45905;50.570;10.428;2023-12-04T16:42:34;-1.70;99.90
60033;DHT22;45905;50.570;10.428;2023-12-04T16:45:02;-1.70;99.90
60033;DHT22;45905;50.570;10.428;2023-12-04T16:47:30;-1.70;99.90
60033;DHT22;45905;50.570;10.428;2023-12-04T16:52:26;-1.70;99.90
60033;DHT22;45905;50.570;10.428;2023-12-04T16:57:22;-1.80;99.90
60033;DHT22;45905;50.570;10.428;2023-12-04T16:59:52;-1.70;99.90
60033;DHT22;45905;50.570;10.428;2023-12-04T17:02:22;-1.80;99.90
60033;DHT22;45905;50.570;10.428;2023-12-04T17:07:18;-1.60;99.90
60033;DHT22;45905;50.570;10.428;2023-12-04T17:12:14;-2.00;99.90
60033;DHT22;45905;50.570;10.428;2023-12-04T17:14:42;-1.70;99.90
60033;DHT22;45905;50.570;10.428;2023-12-04T17:17:09;-1.80;99.90
60033;DHT22;45905;50.570;10.428;2023-12-04T17:19:36;-1.70;99.90
60033;DHT22;45905;50.570;10.428;2023-12-04T17:24:32;-2.00;99.90
60033;DHT22;45905;50.570;10.428;2023-12-04T17:31:56;-2.00;99.90
60033;DHT22;45905;50.570;10.428;2023-12-04T17:36:51;-1.60;99.90
60033;DHT22;45905;50.570;10.428;2023-12-04T17:39:18;-1.90;99.90
60033;DHT22;45905;50.570;10.428;2023-12-04T17:41:46;-2.00;99.90
60033;DHT22;45905;50.570;10.428;2023-12-04T17:44:13;-1.40;99.90
60033;DHT22;45905;50.570;10.428;2023-12-04T17:46:40;-1.70;99.90
60033;DHT22;45905;50.570;10.428;2023-12-04T17:49:07;-1.90;99.90
60033;DHT22;45905;50.570;10.428;2023-12-04T17:51:36;-2.10;99.90
60033;DHT22;45905;50.570;10.428;2023-12-04T17:54:03;-1.90;99.90
60033;DHT22;45905;50.570;10.428;2023-12-04T17:56:31;-1.90;99.90
60033;DHT22;45905;50.570;10.428;2023-12-04T17:59:00;-1.90;99.90
60033;DHT22;45905;50.570;10.428;2023-12-04T18:03:58;-2.00;99.90
60033;DHT22;45905;50.570;10.428;2023-12-04T18:06:29;-0.70;99.90
60033;DHT22;45905;50.570;10.428;2023-12-04T18:08:58;-1.70;99.90
60033;DHT22;45905;50.570;10.428;2023-12-04T18:11:26;-1.70;99.90
60033;DHT22;45905;50.570;10.428;2023-12-04T18:16:21;-2.10;99.90
60033;DHT22;45905;50.570;10.428;2023-12-04T18:23:45;-2.00;99.90
60033;DHT22;45905;50.570;10.428;2023-12-04T18:26:13;-1.80;99.90
60033;DHT22;45905;50.570;10.428;2023-12-04T18:31:09;-2.20;99.90
60033;DHT22;45905;50.570;10.428;2023-12-04T18:33:38;-2.10;99.90
60033;DHT22;45905;50.570;10.428;2023-12-04T18:36:08;-2.00;99.90
60033;DHT22;45905;50.570;10.428;2023-12-04T18:38:40;-2.10;99.90
60033;DHT22;45905;50.570;10.428;2023-12-04T18:41:15;-2.10;99.90
60033;DHT22;45905;50.570;10.428;2023-12-04T18:43:43;-2.00;99.90
60033;DHT22;45905;50.570;10.428;2023-12-04T18:46:14;-1.90;99.90
60033;DHT22;45905;50.570;10.428;2023-12-04T18:48:45;-1.80;99.90
60033;DHT22;45905;50.570;10.428;2023-12-04T18:51:15;-2.20;99.90
60033;DHT22;45905;50.570;10.428;2023-12-04T18:56:11;-1.90;99.90
60033;DHT22;45905;50.570;10.428;2023-12-04T18:58:38;-1.90;99.90
60033;DHT22;45905;50.570;10.428;2023-12-04T19:01:06;-1.90;99.90
60033;DHT22;45905;50.570;10.428;2023-12-04T19:03:33;-2.20;99.90
60033;DHT22;45905;50.570;10.428;2023-12-04T19:06:01;-2.00;99.90
60033;DHT22;45905;50.570;10.428;2023-12-04T19:08:28;-1.90;99.90
60033;DHT22;45905;50.570;10.428;2023-12-04T19:10:55;-1.80;99.90
60033;DHT22;45905;50.570;10.428;2023-12-04T19:15:50;-1.90;99.90
60033;DHT22;45905;50.570;10.428;2023-12-04T19:18:17;-1.60;99.90
60033;DHT22;45905;50.570;10.428;2023-12-04T19:20:45;-2.10;99.90
60033;DHT22;45905;50.570;10.428;2023-12-04T19:23:12;-1.90;99.90
60033;DHT22;45905;50.570;10.428;2023-12-04T19:25:40;-1.70;99.90
60033;DHT22;45905;50.570;10.428;2023-12-04T19:28:10;-1.70;99.90
60033;DHT22;45905;50.570;10.428;2023-12-04T19:30:37;-1.90;99.90
60033;DHT22;45905;50.570;10.428;2023-12-04T19:35:43;-1.80;99.90
60033;DHT22;45905;50.570;10.428;2023-12-04T19:38:10;-1.90;99.90
60033;DHT22;45905;50.570;10.428;2023-12-04T19:40:38;-1.90;99.90
60033;DHT22;45905;50.570;10.428;2023-12-04T19:43:05;-0.40;99.90
60033;DHT22;45905;50.570;10.428;2023-12-04T19:45:32;-2.00;99.90
60033;DHT22;45905;50.570;10.428;2023-12-04T19:50:27;-2.40;99.90
60033;DHT22;45905;50.570;10.428;2023-12-04T19:52:54;-2.00;99.90
60033;DHT22;45905;50.570;10.428;2023-12-04T19:55:22;-1.80;99.90
60033;DHT22;45905;50.570;10.428;2023-12-04T19:57:49;-1.90;99.90
60033;DHT22;45905;50.570;10.428;2023-12-04T20:00:17;-1.90;99.90
60033;DHT22;45905;50.570;10.428;2023-12-04T20:02:45;-1.90;99.90
60033;DHT22;45905;50.570;10.428;2023-12-04T20:05:12;-2.10;99.90
60033;DHT22;45905;50.570;10.428;2023-12-04T20:07:40;-1.80;99.90
60033;DHT22;45905;50.570;10.428;2023-12-04T20:10:07;-1.90;99.90
60033;DHT22;45905;50.570;10.428;2023-12-04T20:12:35;-2.00;99.90
60033;DHT22;45905;50.570;10.428;2023-12-04T20:15:02;-1.90;99.90
60033;DHT22;45905;50.570;10.428;2023-12-04T20:17:31;-1.90;99.90
60033;DHT22;45905;50.570;10.428;2023-12-04T20:19:58;-1.90;99.90
60033;DHT22;45905;50.570;10.428;2023-12-04T20:22:26;-1.80;99.90
60033;DHT22;45905;50.570;10.428;2023-12-04T20:27:21;-1.80;99.90
60033;DHT22;45905;50.570;10.428;2023-12-04T20:29:48;-1.70;99.90
60033;DHT22;45905;50.570;10.428;2023-12-04T20:32:15;-2.00;99.90
60033;DHT22;45905;50.570;10.428;2023-12-04T20:37:10;-2.00;99.90
60033;DHT22;45905;50.570;10.428;2023-12-04T20:39:40;-1.50;99.90
60033;DHT22;45905;50.570;10.428;2023-12-04T20:47:05;-1.70;99.90
60033;DHT22;45905;50.570;10.428;2023-12-04T20:49:32;-2.00;99.90
60033;DHT22;45905;50.570;10.428;2023-12-04T20:52:00;-1.90;99.90
60033;DHT22;45905;50.570;10.428;2023-12-04T20:54:28;-2.50;99.90
60033;DHT22;45905;50.570;10.428;2023-12-04T20:56:55;-2.00;99.90
60033;DHT22;45905;50.570;10.428;2023-12-04T20:59:22;-2.20;99.90
60033;DHT22;45905;50.570;10.428;2023-12-04T21:01:50;-1.90;99.90
60033;DHT22;45905;50.570;10.428;2023-12-04T21:04:18;-1.90;99.90
60033;DHT22;45905;50.570;10.428;2023-12-04T21:06:45;-1.90;99.90
60033;DHT22;45905;50.570;10.428;2023-12-04T21:09:13;-2.10;99.90
60033;DHT22;45905;50.570;10.428;2023-12-04T21:11:40;-2.50;99.90
60033;DHT22;45905;50.570;10.428;2023-12-04T21:14:07;-2.00;99.90
60033;DHT22;45905;50.570;10.428;2023-12-04T21:16:38;-0.80;99.90
60033;DHT22;45905;50.570;10.428;2023-12-04T21:19:17;-2.10;99.90
60033;DHT22;45905;50.570;10.428;2023-12-04T21:21:45;-2.10;99.90
60033;DHT22;45905;50.570;10.428;2023-12-04T21:24:12;-2.10;99.90
60033;DHT22;45905;50.570;10.428;2023-12-04T21:26:40;-1.90;99.90
60033;DHT22;45905;50.570;10.428;2023-12-04T21:29:07;-2.10;99.90
60033;DHT22;45905;50.570;10.428;2023-12-04T21:31:34;-2.00;99.90
60033;DHT22;45905;50.570;10.428;2023-12-04T21:34:01;-2.00;99.90
60033;DHT22;45905;50.570;10.428;2023-12-04T21:36:30;-2.00;99.90
60033;DHT22;45905;50.570;10.428;2023-12-04T21:38:57;-2.00;99.90
60033;DHT22;45905;50.570;10.428;2023-12-04T21:41:24;-2.00;99.90
60033;DHT22;45905;50.570;10.428;2023-12-04T21:43:52;-2.10;99.90
60033;DHT22;45905;50.570;10.428;2023-12-04T21:46:19;-2.20;99.90
60033;DHT22;45905;50.570;10.428;2023-12-04T21:48:46;-1.90;99.90
60033;DHT22;45905;50.570;10.428;2023-12-04T21:51:13;-2.10;99.90
60033;DHT22;45905;50.570;10.428;2023-12-04T21:53:41;-1.70;99.90
60033;DHT22;45905;50.570;10.428;2023-12-04T21:56:08;-2.10;99.90
60033;DHT22;45905;50.570;10.428;2023-12-04T21:58:35;-1.90;99.90
60033;DHT22;45905;50.570;10.428;2023-12-04T22:01:03;-2.00;99.90
60033;DHT22;45905;50.570;10.428;2023-12-04T22:03:30;-1.90;99.90
60033;DHT22;45905;50.570;10.428;2023-12-04T22:06:00;-1.80;99.90
60033;DHT22;45905;50.570;10.428;2023-12-04T22:08:28;-2.00;99.90
60033;DHT22;45905;50.570;10.428;2023-12-04T22:10:55;-2.00;99.90
60033;DHT22;45905;50.570;10.428;2023-12-04T22:13:23;-2.30;99.90
60033;DHT22;45905;50.570;10.428;2023-12-04T22:15:50;-2.10;99.90
60033;DHT22;45905;50.570;10.428;2023-12-04T22:18:17;-2.20;99.90
60033;DHT22;45905;50.570;10.428;2023-12-04T22:20:45;-2.00;99.90
60033;DHT22;45905;50.570;10.428;2023-12-04T22:23:12;-2.00;99.90
60033;DHT22;45905;50.570;10.428;2023-12-04T22:25:40;-2.20;99.90
60033;DHT22;45905;50.570;10.428;2023-12-04T22:28:08;-2.10;99.90
60033;DHT22;45905;50.570;10.428;2023-12-04T22:30:35;-2.10;99.90
60033;DHT22;45905;50.570;10.428;2023-12-04T22:33:02;-1.80;99.90
60033;DHT22;45905;50.570;10.428;2023-12-04T22:35:29;-1.80;99.90
60033;DHT22;45905;50.570;10.428;2023-12-04T22:37:57;-2.00;99.90
60033;DHT22;45905;50.570;10.428;2023-12-04T22:40:27;-2.00;99.90
60033;DHT22;45905;50.570;10.428;2023-12-04T22:42:55;-2.10;99.90
60033;DHT22;45905;50.570;10.428;2023-12-04T22:45:22;-2.00;99.90
60033;DHT22;45905;50.570;10.428;2023-12-04T22:50:18;-1.90;99.90
60033;DHT22;45905;50.570;10.428;2023-12-04T22:52:45;-2.00;99.90
60033;DHT22;45905;50.570;10.428;2023-12-04T22:55:27;-1.90;99.90
60033;DHT22;45905;50.570;10.428;2023-12-04T22:57:54;-1.90;99.90
60033;DHT22;45905;50.570;10.428;2023-12-04T23:00:22;-1.80;99.90
60033;DHT22;45905;50.570;10.428;2023-12-04T23:02:54;-1.90;99.90
60033;DHT22;45905;50.570;10.428;2023-12-04T23:05:21;-2.40;99.90
60033;DHT22;45905;50.570;10.428;2023-12-04T23:07:49;-2.00;99.90
60033;DHT22;45905;50.570;10.428;2023-12-04T23:10:17;-1.90;99.90
60033;DHT22;45905;50.570;10.428;2023-12-04T23:12:44;-1.80;99.90
60033;DHT22;45905;50.570;10.428;2023-12-04T23:15:11;-2.30;99.90
60033;DHT22;45905;50.570;10.428;2023-12-04T23:17:39;-1.90;99.90
60033;DHT22;45905;50.570;10.428;2023-12-04T23:20:06;-1.60;99.90
60033;DHT22;45905;50.570;10.428;2023-12-04T23:22:34;-1.90;99.90
60033;DHT22;45905;50.570;10.428;2023-12-04T23:25:01;-1.90;99.90
60033;DHT22;45905;50.570;10.428;2023-12-04T23:27:29;-1.80;99.90
60033;DHT22;45905;50.570;10.428;2023-12-04T23:30:04;-2.20;99.90
60033;DHT22;45905;50.570;10.428;2023-12-04T23:32:33;-1.80;99.90
60033;DHT22;45905;50.570;10.428;2023-12-04T23:35:01;-1.80;99.90
60033;DHT22;45905;50.570;10.428;2023-12-04T23:37:31;-1.80;99.90
60033;DHT22;45905;50.570;10.428;2023-12-04T23:39:58;-1.90;99.90
60033;DHT22;45905;50.570;10.428;2023-12-04T23:42:25;-1.90;99.90
60033;DHT22;45905;50.570;10.428;2023-12-04T23:44:53;-1.80;99.90
60033;DHT22;45905;50.570;10.428;2023-12-04T23:47:21;-2.00;99.90
60033;DHT22;45905;50.570;10.428;2023-12-04T23:49:48;-1.80;99.90
60033;DHT22;45905;50.570;10.428;2023-12-04T23:52:15;-1.80;99.90
60033;DHT22;45905;50.570;10.428;2023-12-04T23:54:42;-1.80;99.90
60033;DHT22;45905;50.570;10.428;2023-12-04T23:57:10;-1.90;99.90